createdAt,value
2018-06-04T00:02:54.880Z,14.75
2018-06-04T00:05:57.918Z,14.69
2018-06-04T00:09:06.341Z,14.62
2018-06-04T00:12:09.294Z,14.51
2018-06-04T00:15:14.478Z,14.40
2018-06-04T00:18:17.648Z,14.30
2018-06-04T00:21:21.733Z,14.24
2018-06-04T00:24:26.720Z,14.21
2018-06-04T00:27:29.822Z,14.20
2018-06-04T00:30:32.882Z,14.20
2018-06-04T00:33:35.917Z,14.20
2018-06-04T00:36:39.072Z,14.17
2018-06-04T00:39:43.142Z,14.16
2018-06-04T00:42:48.275Z,14.14
2018-06-04T00:45:51.253Z,14.08
2018-06-04T00:48:54.333Z,14.08
2018-06-04T00:51:57.437Z,14.08
2018-06-04T00:55:00.528Z,14.06
2018-06-04T00:58:03.745Z,14.01
2018-06-04T01:01:06.965Z,13.95
2018-06-04T01:04:10.052Z,13.94
2018-06-04T01:07:13.100Z,13.88
2018-06-04T01:10:16.220Z,13.83
2018-06-04T01:13:19.340Z,13.80
2018-06-04T01:16:22.435Z,13.75
2018-06-04T01:19:25.497Z,13.73
2018-06-04T01:22:28.584Z,13.69
2018-06-04T01:25:31.723Z,13.67
2018-06-04T01:28:34.735Z,13.67
2018-06-04T01:31:37.777Z,13.69
2018-06-04T01:34:40.898Z,13.74
2018-06-04T01:37:43.865Z,13.79
2018-06-04T01:40:46.903Z,13.79
2018-06-04T01:43:49.991Z,13.79
2018-06-04T01:46:53.074Z,13.78
2018-06-04T01:49:56.141Z,13.80
2018-06-04T01:52:59.117Z,13.82
2018-06-04T01:56:02.143Z,13.78
2018-06-04T01:59:05.203Z,13.68
2018-06-04T02:02:08.382Z,13.57
2018-06-04T02:05:11.442Z,13.39
2018-06-04T02:08:14.463Z,13.33
2018-06-04T02:11:17.484Z,13.32
2018-06-04T02:14:20.444Z,13.36
2018-06-04T02:17:23.480Z,13.37
2018-06-04T02:20:26.537Z,13.42
2018-06-04T02:23:29.585Z,13.46
2018-06-04T02:26:32.585Z,13.49
2018-06-04T02:29:35.594Z,13.48
2018-06-04T02:32:38.699Z,13.44
2018-06-04T02:35:41.707Z,13.45
2018-06-04T02:38:44.886Z,13.43
2018-06-04T02:41:47.905Z,13.44
2018-06-04T02:44:50.932Z,13.48
2018-06-04T02:47:54.041Z,13.50
2018-06-04T02:50:57.071Z,13.52
2018-06-04T02:54:00.234Z,13.49
2018-06-04T02:57:03.329Z,13.39
2018-06-04T03:00:11.893Z,13.33
2018-06-04T03:03:15.004Z,13.36
2018-06-04T03:06:19.042Z,13.40
2018-06-04T03:09:22.094Z,13.43
2018-06-04T03:12:25.292Z,13.50
2018-06-04T03:15:28.443Z,13.55
2018-06-04T03:18:31.540Z,13.59
2018-06-04T03:21:34.788Z,13.60
2018-06-04T03:24:37.796Z,13.60
2018-06-04T03:27:40.855Z,13.61
2018-06-04T03:30:43.977Z,13.62
2018-06-04T03:33:48.012Z,13.66
2018-06-04T03:36:50.981Z,13.67
2018-06-04T03:39:53.987Z,13.71
2018-06-04T03:43:00.383Z,13.77
2018-06-04T03:46:03.401Z,13.92
2018-06-04T03:49:08.400Z,14.05
2018-06-04T03:52:11.396Z,14.20
2018-06-04T03:55:14.372Z,14.37
2018-06-04T03:58:20.827Z,14.57
2018-06-04T04:01:23.787Z,15.14
2018-06-04T04:04:32.564Z,16.97
2018-06-04T04:07:39.982Z,18.53
2018-06-04T04:10:43.013Z,19.11
2018-06-04T04:13:46.043Z,20.03
2018-06-04T04:16:49.178Z,20.80
2018-06-04T04:19:52.430Z,21.20
2018-06-04T04:22:55.474Z,21.51
2018-06-04T04:25:59.521Z,21.75
2018-06-04T04:29:02.681Z,21.56
2018-06-04T04:32:05.839Z,20.96
2018-06-04T04:35:09.987Z,21.60
2018-06-04T04:38:14.072Z,22.56
2018-06-04T04:41:18.319Z,23.45
2018-06-04T04:44:21.485Z,24.54
2018-06-04T04:47:25.500Z,25.07
2018-06-04T04:50:28.588Z,24.83
2018-06-04T04:53:31.792Z,25.36
2018-06-04T04:56:36.885Z,25.22
2018-06-04T04:59:41.151Z,25.47
2018-06-04T05:02:45.285Z,25.91
2018-06-04T05:05:49.001Z,26.87
2018-06-04T05:08:53.055Z,27.45
2018-06-04T05:11:56.186Z,28.04
2018-06-04T05:15:00.402Z,28.50
2018-06-04T05:18:03.397Z,29.06
2018-06-04T05:21:06.566Z,29.49
2018-06-04T05:24:10.663Z,29.67
2018-06-04T05:27:17.571Z,27.60
2018-06-04T05:30:23.990Z,27.03
2018-06-04T05:33:27.053Z,27.23
2018-06-04T05:36:31.086Z,27.63
2018-06-04T05:39:36.237Z,27.86
2018-06-04T05:42:39.579Z,27.98
2018-06-04T05:45:42.762Z,28.04
2018-06-04T05:48:45.962Z,28.05
2018-06-04T05:51:49.018Z,27.93
2018-06-04T05:54:53.141Z,27.36
2018-06-04T05:57:59.682Z,30.01
2018-06-04T06:01:02.856Z,30.44
2018-06-04T06:04:06.900Z,31.34
2018-06-04T06:07:11.036Z,30.78
2018-06-04T06:10:14.144Z,30.96
2018-06-04T06:13:17.178Z,31.47
2018-06-04T06:16:20.212Z,29.25
2018-06-04T06:19:23.180Z,29.67
2018-06-04T06:22:26.350Z,29.55
2018-06-04T06:25:30.425Z,28.42
2018-06-04T06:28:34.683Z,28.94
2018-06-04T06:31:37.959Z,30.12
2018-06-04T06:34:41.216Z,28.49
2018-06-04T06:37:44.413Z,28.83
2018-06-04T06:40:48.491Z,28.75
2018-06-04T06:43:51.572Z,29.09
2018-06-04T06:46:54.643Z,29.72
2018-06-04T06:49:57.774Z,29.54
2018-06-04T06:53:00.709Z,29.51
2018-06-04T06:56:03.885Z,28.74
2018-06-04T06:59:07.102Z,28.40
2018-06-04T07:02:10.126Z,29.10
2018-06-04T07:05:13.237Z,28.48
2018-06-04T07:08:16.286Z,30.62
2018-06-04T07:11:20.358Z,30.98
2018-06-04T07:14:23.499Z,29.04
2018-06-04T07:17:26.384Z,30.20
2018-06-04T07:20:29.438Z,29.80
2018-06-04T07:23:32.467Z,27.36
2018-06-04T07:26:35.557Z,29.65
2018-06-04T07:29:38.677Z,29.75
2018-06-04T07:32:41.909Z,28.59
2018-06-04T07:35:45.107Z,29.69
2018-06-04T07:38:48.497Z,30.23
2018-06-04T07:41:51.882Z,28.29
2018-06-04T07:44:54.999Z,28.43
2018-06-04T07:47:58.137Z,29.23
2018-06-04T07:51:01.113Z,30.19
2018-06-04T07:54:04.322Z,29.02
2018-06-04T07:57:07.437Z,28.61
2018-06-04T08:00:10.576Z,28.05
2018-06-04T08:03:13.642Z,27.03
2018-06-04T08:06:16.823Z,26.96
2018-06-04T08:09:22.024Z,26.29
2018-06-04T08:12:25.212Z,26.11
2018-06-04T08:15:28.538Z,25.09
2018-06-04T08:18:31.614Z,24.90
2018-06-04T08:21:34.668Z,24.93
2018-06-04T08:24:37.812Z,25.69
2018-06-04T08:27:40.869Z,26.61
2018-06-04T08:30:44.055Z,25.65
2018-06-04T08:33:47.175Z,25.62
2018-06-04T08:36:51.225Z,26.57
2018-06-04T08:39:54.268Z,26.98
2018-06-04T08:42:57.872Z,26.64
2018-06-04T08:46:01.065Z,26.35
2018-06-04T08:49:04.185Z,26.64
2018-06-04T08:52:07.315Z,25.58
2018-06-04T08:55:10.472Z,26.17
2018-06-04T08:58:13.592Z,25.94
2018-06-04T09:01:16.925Z,26.06
2018-06-04T09:04:20.992Z,26.56
2018-06-04T09:07:25.070Z,26.57
2018-06-04T09:10:28.119Z,25.70
2018-06-04T09:13:32.230Z,26.08
2018-06-04T09:16:35.283Z,25.90
2018-06-04T09:19:38.541Z,26.24
2018-06-04T09:22:41.579Z,26.10
2018-06-04T09:25:44.720Z,26.68
2018-06-04T09:28:47.799Z,27.09
2018-06-04T09:31:54.262Z,27.67
2018-06-04T09:34:57.465Z,28.29
2018-06-04T09:38:00.577Z,29.00
2018-06-04T09:41:03.791Z,28.27
2018-06-04T09:44:06.889Z,28.20
2018-06-04T09:47:09.922Z,28.35
2018-06-04T09:50:13.140Z,28.21
2018-06-04T09:53:16.218Z,28.51
2018-06-04T09:56:19.552Z,28.80
2018-06-04T09:59:22.791Z,29.04
2018-06-04T10:02:25.945Z,27.74
2018-06-04T10:05:30.152Z,27.57
2018-06-04T10:08:34.240Z,27.80
2018-06-04T10:11:37.321Z,27.59
2018-06-04T10:14:40.515Z,27.57
2018-06-04T10:17:49.262Z,28.10
2018-06-04T10:20:53.039Z,28.83
2018-06-04T10:23:57.343Z,28.86
2018-06-04T10:27:00.595Z,28.57
2018-06-04T10:30:06.072Z,28.67
2018-06-04T10:33:09.477Z,29.38
2018-06-04T10:36:12.760Z,30.09
2018-06-04T10:39:17.098Z,29.99
2018-06-04T10:42:20.262Z,29.50
2018-06-04T10:45:23.527Z,29.30
2018-06-04T10:48:26.789Z,28.64
2018-06-04T10:51:31.905Z,28.36
2018-06-04T10:54:38.629Z,28.13
2018-06-04T10:58:46.605Z,28.67
2018-06-04T11:01:50.668Z,28.48
2018-06-04T11:05:09.178Z,28.58
2018-06-04T11:08:14.663Z,28.55
2018-06-04T11:11:18.032Z,29.07
2018-06-04T11:14:23.361Z,29.42
2018-06-04T11:17:28.930Z,29.73
2018-06-04T11:20:37.269Z,29.14
2018-06-04T11:23:41.697Z,28.15
2018-06-04T11:26:45.174Z,28.76
2018-06-04T11:29:50.597Z,29.04
2018-06-04T11:33:01.836Z,28.78
2018-06-04T11:36:05.197Z,29.09
2018-06-04T11:39:12.706Z,29.46
2018-06-04T11:42:16.783Z,30.05
2018-06-04T11:45:21.761Z,30.84
2018-06-04T11:48:27.185Z,31.76
2018-06-04T11:51:38.221Z,31.44
2018-06-04T11:54:41.766Z,31.09
2018-06-04T11:57:52.628Z,30.54
2018-06-04T12:00:56.387Z,31.29
2018-06-04T12:04:02.159Z,31.01
2018-06-04T12:07:08.794Z,30.40
2018-06-04T12:10:35.262Z,30.24
2018-06-04T12:13:52.441Z,29.32
2018-06-04T12:16:57.107Z,28.44
2018-06-04T12:20:01.712Z,28.61
2018-06-04T12:23:08.929Z,29.20
2018-06-04T12:26:14.348Z,29.98
2018-06-04T12:29:17.799Z,29.83
2018-06-04T12:32:25.569Z,30.23
2018-06-04T12:35:29.205Z,30.38
2018-06-04T12:38:36.245Z,30.20
2018-06-04T12:41:39.709Z,30.55
2018-06-04T12:44:44.404Z,30.44
2018-06-04T12:47:50.197Z,30.04
2018-06-04T12:50:58.559Z,30.04
2018-06-04T12:54:01.968Z,30.47
2018-06-04T12:57:05.493Z,30.15
2018-06-04T13:00:09.903Z,29.45
2018-06-04T13:03:16.743Z,29.69
2018-06-04T13:06:20.141Z,29.69
2018-06-04T13:09:23.416Z,29.88
2018-06-04T13:12:30.332Z,29.80
2018-06-04T13:15:34.922Z,30.79
2018-06-04T13:18:38.647Z,31.16
2018-06-04T13:21:42.075Z,31.21
2018-06-04T13:24:45.484Z,31.60
2018-06-04T13:27:49.192Z,31.04
2018-06-04T13:30:52.836Z,31.24
2018-06-04T13:33:56.422Z,31.93
2018-06-04T13:37:05.600Z,31.45
2018-06-04T13:40:12.074Z,30.91
2018-06-04T13:43:16.952Z,31.02
2018-06-04T13:46:20.449Z,31.81
2018-06-04T13:49:25.903Z,32.04
2018-06-04T13:52:30.071Z,31.86
2018-06-04T13:55:33.458Z,31.11
2018-06-04T13:58:36.858Z,31.05
2018-06-04T14:01:40.274Z,31.30
2018-06-04T14:04:43.633Z,31.74
2018-06-04T14:07:46.890Z,31.88
2018-06-04T14:10:50.287Z,32.54
2018-06-04T14:13:53.747Z,32.44
2018-06-04T14:16:57.039Z,32.12
2018-06-04T14:20:01.161Z,31.98
2018-06-04T14:23:04.562Z,31.85
2018-06-04T14:26:07.828Z,32.31
2018-06-04T14:29:11.262Z,32.11
2018-06-04T14:32:14.705Z,32.29
2018-06-04T14:35:20.177Z,31.49
2018-06-04T14:38:24.288Z,31.13
2018-06-04T14:41:27.310Z,31.55
2018-06-04T14:44:30.382Z,31.29
2018-06-04T14:47:36.599Z,31.12
2018-06-04T14:50:39.976Z,31.26
2018-06-04T14:53:44.322Z,31.49
2018-06-04T14:56:50.564Z,31.73
2018-06-04T14:59:54.733Z,31.43
2018-06-04T15:02:57.864Z,31.61
2018-06-04T15:06:01.037Z,31.27
2018-06-04T15:09:07.350Z,31.54
2018-06-04T15:12:12.550Z,31.97
2018-06-04T15:15:22.528Z,32.03
2018-06-04T15:18:25.780Z,32.51
2018-06-04T15:21:29.679Z,32.46
2018-06-04T15:24:34.003Z,32.85
2018-06-04T15:27:38.394Z,32.87
2018-06-04T15:30:42.010Z,32.05
2018-06-04T15:33:46.526Z,31.76
2018-06-04T15:36:50.824Z,32.23
2018-06-04T15:39:57.792Z,33.51
2018-06-04T15:43:02.431Z,33.64
2018-06-04T15:46:07.281Z,32.43
2018-06-04T15:49:10.973Z,32.19
2018-06-04T15:52:14.293Z,32.22
2018-06-04T15:55:18.607Z,32.98
2018-06-04T15:58:22.341Z,33.45
2018-06-04T16:01:26.536Z,33.55
2018-06-04T16:04:29.713Z,33.69
2018-06-04T16:07:33.182Z,34.27
2018-06-04T16:10:37.486Z,34.82
2018-06-04T16:13:41.970Z,33.92
2018-06-04T16:16:46.337Z,32.92
2018-06-04T16:19:49.733Z,31.87
2018-06-04T16:22:53.149Z,31.13
2018-06-04T16:25:57.388Z,30.46
2018-06-04T16:29:00.462Z,31.35
2018-06-04T16:32:03.538Z,32.57
2018-06-04T16:35:07.580Z,33.36
2018-06-04T16:38:10.622Z,34.13
2018-06-04T16:41:13.702Z,35.32
2018-06-04T16:44:16.906Z,36.07
2018-06-04T16:47:22.357Z,34.81
2018-06-04T16:50:25.757Z,34.52
2018-06-04T16:53:30.163Z,32.86
2018-06-04T16:56:33.414Z,33.11
2018-06-04T16:59:37.561Z,33.18
2018-06-04T17:02:40.752Z,33.78
2018-06-04T17:05:46.102Z,33.80
2018-06-04T17:08:50.537Z,35.54
2018-06-04T17:11:56.007Z,35.87
2018-06-04T17:15:01.496Z,36.24
2018-06-04T17:18:07.269Z,36.16
2018-06-04T17:21:10.713Z,35.71
2018-06-04T17:24:15.855Z,35.54
2018-06-04T17:27:19.098Z,34.61
2018-06-04T17:30:22.176Z,32.31
2018-06-04T17:33:25.288Z,30.77
2018-06-04T17:36:30.370Z,29.52
2018-06-04T17:39:34.480Z,28.98
2018-06-04T17:42:37.614Z,28.62
2018-06-04T17:45:40.891Z,29.23
2018-06-04T17:48:45.031Z,28.94
2018-06-04T17:51:50.113Z,28.34
2018-06-04T17:54:53.251Z,27.81
2018-06-04T17:57:56.300Z,28.58
2018-06-04T18:00:59.545Z,28.87
2018-06-04T18:04:05.942Z,28.52
2018-06-04T18:07:09.101Z,27.96
2018-06-04T18:10:17.069Z,27.45
2018-06-04T18:13:21.231Z,26.94
2018-06-04T18:16:24.451Z,26.47
2018-06-04T18:19:31.319Z,26.15
2018-06-04T18:22:34.658Z,25.85
2018-06-04T18:25:37.772Z,25.66
2018-06-04T18:28:40.892Z,25.43
2018-06-04T18:31:44.154Z,25.30
2018-06-04T18:34:48.368Z,25.19
2018-06-04T18:37:52.601Z,25.15
2018-06-04T18:40:56.576Z,24.98
2018-06-04T18:44:01.108Z,24.77
2018-06-04T18:47:04.777Z,24.56
2018-06-04T18:50:08.151Z,24.36
2018-06-04T18:53:11.436Z,24.17
2018-06-04T18:56:15.670Z,23.99
2018-06-04T18:59:20.003Z,23.77
2018-06-04T19:02:24.176Z,23.68
2018-06-04T19:05:28.301Z,23.57
2018-06-04T19:08:33.327Z,23.44
2018-06-04T19:11:38.506Z,23.40
2018-06-04T19:14:41.924Z,23.31
2018-06-04T19:17:45.140Z,23.14
2018-06-04T19:20:49.447Z,22.95
2018-06-04T19:23:53.747Z,22.66
2018-06-04T19:26:58.047Z,22.43
2018-06-04T19:30:03.884Z,22.20
2018-06-04T19:33:07.645Z,22.00
2018-06-04T19:36:11.188Z,21.85
2018-06-04T19:39:14.559Z,21.72
2018-06-04T19:42:17.865Z,21.56
2018-06-04T19:45:21.087Z,21.38
2018-06-04T19:48:24.562Z,21.26
2018-06-04T19:51:27.825Z,21.07
2018-06-04T19:54:31.074Z,20.92
2018-06-04T19:57:35.119Z,20.78
2018-06-04T20:00:38.232Z,20.70
2018-06-04T20:03:41.317Z,20.62
2018-06-04T20:06:44.349Z,20.49
2018-06-04T20:09:48.473Z,20.35
2018-06-04T20:12:51.540Z,20.20
2018-06-04T20:15:56.613Z,20.04
2018-06-04T20:18:59.755Z,19.87
2018-06-04T20:22:03.011Z,19.75
2018-06-04T20:25:06.236Z,19.63
2018-06-04T20:28:09.240Z,19.52
2018-06-04T20:31:12.369Z,19.42
2018-06-04T20:34:15.417Z,19.31
2018-06-04T20:37:20.887Z,19.16
2018-06-04T20:40:25.916Z,19.10
2018-06-04T20:43:32.508Z,19.06
2018-06-04T20:57:31.526Z,19.09
2018-06-04T21:00:35.651Z,19.06
2018-06-04T21:03:44.710Z,18.95
2018-06-04T21:06:49.266Z,18.84
2018-06-04T21:09:55.419Z,18.73
2018-06-04T21:13:06.048Z,18.62
2018-06-04T21:16:09.938Z,18.59
2018-06-04T21:19:15.018Z,18.52
2018-06-04T21:22:26.940Z,18.45
2018-06-04T21:25:32.525Z,18.33
2018-06-04T21:28:38.579Z,18.23
2018-06-04T21:31:45.238Z,18.13
2018-06-04T21:34:56.741Z,18.10
2018-06-04T21:38:00.548Z,18.10
2018-06-04T21:41:05.479Z,18.07
2018-06-04T21:44:12.958Z,18.07
2018-06-04T21:47:19.802Z,18.05
2018-06-04T21:50:25.602Z,17.96
2018-06-04T21:53:29.309Z,17.87
2018-06-04T21:56:33.096Z,17.79
2018-06-04T21:59:41.147Z,17.91
2018-06-04T22:02:44.960Z,17.92
2018-06-04T22:05:53.608Z,17.96
2018-06-04T22:08:58.322Z,17.99
2018-06-04T22:12:03.260Z,17.81
2018-06-04T22:15:09.193Z,17.66
2018-06-04T22:18:17.787Z,17.61
2018-06-04T22:21:22.418Z,17.55
2018-06-04T22:24:27.360Z,17.48
2018-06-04T22:27:30.995Z,17.43
2018-06-04T22:30:36.456Z,17.46
2018-06-04T22:33:40.856Z,17.48
2018-06-04T22:36:46.925Z,17.50
2018-06-04T22:39:51.025Z,17.51
2018-06-04T22:42:54.719Z,17.64
2018-06-04T22:46:03.142Z,17.81
2018-06-04T22:49:07.480Z,18.04
2018-06-04T22:52:22.067Z,18.15
2018-06-04T22:55:25.978Z,18.13
2018-06-04T22:58:29.900Z,18.07
2018-06-04T23:01:34.908Z,18.04
2018-06-04T23:04:39.813Z,18.00
2018-06-04T23:07:44.972Z,17.94
2018-06-04T23:10:49.964Z,17.85
2018-06-04T23:13:56.196Z,17.77
2018-06-04T23:17:01.181Z,17.67
2018-06-04T23:20:07.745Z,17.51
2018-06-04T23:23:14.372Z,17.38
2018-06-04T23:26:19.699Z,17.27
2018-06-04T23:29:24.830Z,17.21
2018-06-04T23:32:30.579Z,17.19
2018-06-04T23:35:36.376Z,17.27
2018-06-04T23:38:42.343Z,17.35
2018-06-04T23:41:47.648Z,17.35
2018-06-04T23:44:53.533Z,17.38
2018-06-04T23:48:02.555Z,17.34
2018-06-04T23:51:09.371Z,17.28
2018-06-04T23:54:18.310Z,17.19
2018-06-04T23:57:36.896Z,17.18
